Time;durP1;ratioP1;P1;durP2;ratioP2;P2;SDS_P1;SDS_P2;PMS_P1;PMS_P2;Temp;Humidity;BMP_temperature;BMP_pressure;BME280_temperature;BME280_humidity;BME280_pressure;Samples;Min_cycle;Max_cycle;Signal;HPM_P1;HPM_P2
2023/05/28 00:01:58;;;;;;;11.40;5.45;;;12.40;99.90;;;;;;10012487;29;20233;-84
2023/05/28 00:07:21;;;;;;;6.88;5.15;;;12.40;99.90;;;;;;10004556;29;20590;-83
2023/05/28 00:12:42;;;;;;;9.05;5.18;;;12.30;99.90;;;;;;10021901;29;20499;-82
2023/05/28 00:18:04;;;;;;;8.70;5.47;;;12.20;99.90;;;;;;10005012;29;20221;-81
2023/05/28 00:23:25;;;;;;;8.13;5.55;;;12.20;99.90;;;;;;10008406;29;20771;-83
2023/05/28 00:28:47;;;;;;;9.70;5.13;;;12.10;99.90;;;;;;10004568;29;20302;-84
2023/05/28 00:34:08;;;;;;;9.88;5.00;;;12.20;99.90;;;;;;10009598;29;20249;-83
2023/05/28 00:39:30;;;;;;;8.55;4.75;;;12.10;99.90;;;;;;10003519;29;20276;-81
2023/05/28 00:44:52;;;;;;;11.98;6.13;;;12.00;99.90;;;;;;9976956;29;20212;-76
2023/05/28 00:50:13;;;;;;;14.77;8.68;;;12.00;99.90;;;;;;10002434;29;20229;-76
2023/05/28 00:55:35;;;;;;;13.68;8.32;;;12.00;99.90;;;;;;9991825;29;20299;-75
2023/05/28 01:00:57;;;;;;;16.10;8.00;;;11.90;99.90;;;;;;10006825;29;20208;-76
2023/05/28 01:06:20;;;;;;;13.45;7.35;;;11.80;99.90;;;;;;10006086;29;20238;-75
2023/05/28 01:17:07;;;;;;;17.73;7.07;;;11.70;99.90;;;;;;10033703;29;20220;-82
2023/05/28 01:22:37;;;;;;;11.67;6.97;;;11.60;99.90;;;;;;10035370;29;20257;-80
2023/05/28 01:28:03;;;;;;;12.98;6.68;;;11.50;99.90;;;;;;10026418;29;20223;-83
2023/05/28 01:33:24;;;;;;;9.38;4.95;;;11.30;1.00;;;;;;10008528;29;20242;-81
2023/05/28 01:38:48;;;;;;;10.88;5.32;;;11.40;1.00;;;;;;10029393;29;20208;-84
2023/05/28 01:44:12;;;;;;;8.57;4.45;;;11.30;1.00;;;;;;10014420;29;20262;-84
2023/05/28 01:49:35;;;;;;;7.70;3.85;;;11.30;1.00;;;;;;9995025;29;20258;-81
2023/05/28 01:54:57;;;;;;;6.30;3.10;;;11.30;1.00;;;;;;10013218;29;20221;-84
2023/05/28 02:00:19;;;;;;;7.22;3.67;;;11.30;1.00;;;;;;10046163;29;20285;-80
2023/05/28 02:05:40;;;;;;;9.15;4.28;;;11.20;1.00;;;;;;10042224;29;20229;-82
2023/05/28 02:11:02;;;;;;;5.97;3.67;;;11.20;1.00;;;;;;10012311;29;20232;-84
2023/05/28 02:16:23;;;;;;;7.23;3.90;;;11.20;1.00;;;;;;9993614;29;20215;-80
2023/05/28 02:21:47;;;;;;;5.25;3.20;;;11.20;1.00;;;;;;10006993;29;20248;-83
2023/05/28 02:27:09;;;;;;;5.60;3.22;;;11.20;1.00;;;;;;10034203;29;20448;-84
2023/05/28 02:32:31;;;;;;;7.38;2.97;;;11.10;1.00;;;;;;10036729;29;20262;-80
2023/05/28 02:37:52;;;;;;;6.30;2.92;;;11.10;1.00;;;;;;10006832;29;20212;-77
2023/05/28 02:43:13;;;;;;;5.53;3.47;;;11.10;1.00;;;;;;9997164;29;20215;-78
2023/05/28 02:48:36;;;;;;;6.00;3.22;;;11.10;1.00;;;;;;10044092;29;20416;-84
2023/05/28 02:53:58;;;;;;;9.00;3.03;;;11.00;1.00;;;;;;10044282;29;20195;-84
2023/05/28 02:59:20;;;;;;;7.82;3.50;;;11.00;1.00;;;;;;10016609;29;20214;-84
2023/05/28 03:04:41;;;;;;;9.40;4.88;;;11.00;1.00;;;;;;10030468;29;20393;-81
2023/05/28 03:10:03;;;;;;;6.20;3.58;;;11.10;1.00;;;;;;10043086;29;20226;-81
2023/05/28 03:15:27;;;;;;;5.80;3.63;;;11.00;1.00;;;;;;10000654;29;20215;-83
2023/05/28 03:20:48;;;;;;;5.30;3.10;;;11.10;1.00;;;;;;10006595;29;20271;-81
2023/05/28 03:26:09;;;;;;;4.88;3.42;;;11.10;1.00;;;;;;10001668;29;20402;-83
2023/05/28 03:31:41;;;;;;;4.32;3.28;;;11.20;8.10;;;;;;10007592;29;20405;-84
2023/05/28 03:37:05;;;;;;;5.40;2.90;;;11.20;1.00;;;;;;10004758;29;20252;-84
2023/05/28 03:42:30;;;;;;;6.10;3.55;;;11.30;1.00;;;;;;10006876;29;20211;-84
2023/05/28 03:47:51;;;;;;;7.10;3.30;;;11.30;1.00;;;;;;10003760;29;20248;-83
2023/05/28 03:53:13;;;;;;;7.25;4.75;;;11.40;1.00;;;;;;9994131;29;20291;-84
2023/05/28 03:58:34;;;;;;;5.28;3.88;;;11.50;1.00;;;;;;10004256;29;20203;-84
2023/05/28 04:03:56;;;;;;;6.22;3.45;;;11.50;1.00;;;;;;10018481;29;20270;-84
2023/05/28 04:09:20;;;;;;;7.32;3.45;;;11.60;1.00;;;;;;10039080;29;20255;-84
2023/05/28 04:14:42;;;;;;;3.08;2.28;;;11.70;1.00;;;;;;10041211;29;20205;-84
2023/05/28 04:20:06;;;;;;;5.75;3.17;;;11.70;1.00;;;;;;10028100;29;20211;-81
2023/05/28 04:25:28;;;;;;;4.32;2.13;;;11.90;1.00;;;;;;10023521;29;20240;-84
2023/05/28 04:30:51;;;;;;;4.68;2.78;;;11.90;1.00;;;;;;10014866;29;20238;-80
2023/05/28 04:36:15;;;;;;;4.80;2.90;;;11.90;1.00;;;;;;10013686;29;20269;-81
2023/05/28 04:41:37;;;;;;;4.47;2.88;;;11.90;1.00;;;;;;10002818;29;20208;-83
2023/05/28 04:46:58;;;;;;;2.90;2.05;;;12.00;1.00;;;;;;9990162;29;20544;-82
2023/05/28 04:52:20;;;;;;;5.95;2.50;;;12.20;1.00;;;;;;10006340;29;20207;-81
2023/05/28 04:57:42;;;;;;;5.00;2.65;;;12.30;1.00;;;;;;10002748;29;20203;-84
2023/05/28 05:03:03;;;;;;;3.28;2.42;;;12.40;1.00;;;;;;10026639;29;20203;-84
2023/05/28 05:08:27;;;;;;;3.38;2.17;;;12.60;1.00;;;;;;10021877;29;20243;-80
2023/05/28 05:13:49;;;;;;;6.15;2.55;;;12.70;1.00;;;;;;10002274;29;20198;-79
2023/05/28 05:19:10;;;;;;;4.57;2.60;;;12.80;1.00;;;;;;10019835;29;20269;-78
2023/05/28 05:24:32;;;;;;;5.82;2.90;;;13.00;1.00;;;;;;10011415;29;20239;-82
2023/05/28 05:29:53;;;;;;;2.88;2.10;;;13.20;1.00;;;;;;10005372;29;20236;-82
2023/05/28 05:35:15;;;;;;;3.65;2.63;;;13.40;1.00;;;;;;10047116;29;20414;-77
2023/05/28 05:40:56;;;;;;;2.90;2.28;;;13.60;1.00;;;;;;10015544;29;20220;-77
2023/05/28 05:46:29;;;;;;;5.10;3.10;;;13.80;1.00;;;;;;10025622;29;20530;-77
2023/05/28 05:51:51;;;;;;;4.75;2.38;;;14.00;1.00;;;;;;10010309;29;20282;-81
2023/05/28 05:57:14;;;;;;;4.43;2.58;;;14.20;1.00;;;;;;10020819;29;20505;-79
2023/05/28 06:02:37;;;;;;;6.07;2.50;;;14.40;1.00;;;;;;10045790;29;20512;-77
2023/05/28 06:08:04;;;;;;;5.35;2.50;;;14.70;99.90;;;;;;10014306;29;20240;-84
2023/05/28 06:13:35;;;;;;;5.78;2.53;;;15.00;99.90;;;;;;10020299;29;20561;-84
2023/05/28 06:18:56;;;;;;;4.47;2.40;;;15.20;99.90;;;;;;10007430;29;20277;-80
2023/05/28 06:24:17;;;;;;;6.25;2.40;;;15.50;99.90;;;;;;10033559;29;20222;-81
2023/05/28 06:29:40;;;;;;;5.03;2.70;;;15.90;99.90;;;;;;10017246;29;20261;-80
2023/05/28 06:35:03;;;;;;;2.95;2.40;;;16.30;99.90;;;;;;10031205;29;20241;-81
2023/05/28 06:40:25;;;;;;;6.32;2.10;;;16.90;99.90;;;;;;10027986;29;20294;-85
2023/05/28 06:45:47;;;;;;;6.93;2.28;;;17.50;99.90;;;;;;10044885;29;20251;-84
2023/05/28 06:51:08;;;;;;;5.85;2.88;;;18.00;1.00;;;;;;10042837;29;20245;-85
2023/05/28 06:56:30;;;;;;;3.75;2.10;;;18.70;1.00;;;;;;10031471;29;20231;-84
2023/05/28 07:02:10;;;;;;;4.55;1.67;;;19.30;99.90;;;;;;10044233;29;20222;-76
2023/05/28 07:08:11;;;;;;;5.43;1.98;;;;;;;;;;10077624;29;20275;-77
2023/05/28 07:13:33;;;;;;;3.30;1.88;;;20.50;99.90;;;;;;10077838;29;20226;-77
2023/05/28 07:18:55;;;;;;;3.80;1.55;;;21.10;99.90;;;;;;10063291;29;20214;-82
2023/05/28 07:24:19;;;;;;;5.07;2.25;;;21.50;99.90;;;;;;10077641;29;20229;-83
2023/05/28 07:29:41;;;;;;;3.33;1.63;;;22.00;99.90;;;;;;10065108;29;20258;-79
2023/05/28 07:35:07;;;;;;;1.58;1.27;;;22.10;99.90;;;;;;10058609;29;20314;-83
2023/05/28 07:40:28;;;;;;;3.72;1.75;;;22.50;99.90;;;;;;10008014;29;20212;-81
2023/05/28 07:45:58;;;;;;;3.78;1.60;;;22.80;99.90;;;;;;9991404;29;20207;-84
2023/05/28 07:51:28;;;;;;;3.13;1.50;;;23.10;99.90;;;;;;9993789;29;20243;-81
2023/05/28 07:56:55;;;;;;;2.95;1.85;;;23.40;99.90;;;;;;9991085;29;20274;-83
2023/05/28 08:02:22;;;;;;;2.10;1.50;;;23.30;99.90;;;;;;10004588;29;20247;-85
2023/05/28 08:07:45;;;;;;;4.22;1.83;;;23.60;99.90;;;;;;9991132;29;20262;-81
2023/05/28 08:13:06;;;;;;;3.83;1.50;;;23.90;99.90;;;;;;10003853;29;20208;-82
2023/05/28 08:18:28;;;;;;;3.17;1.27;;;24.20;99.90;;;;;;10013378;29;20286;-79
2023/05/28 08:23:51;;;;;;;2.95;1.73;;;;;;;;;;10016438;29;20204;-82
2023/05/28 08:29:12;;;;;;;3.03;1.63;;;25.00;99.90;;;;;;10007141;29;20262;-82
2023/05/28 08:34:41;;;;;;;4.53;1.85;;;25.10;99.90;;;;;;10027513;29;20239;-76
2023/05/28 08:40:07;;;;;;;3.20;1.75;;;25.50;99.90;;;;;;10028165;29;20286;-85
2023/05/28 08:45:29;;;;;;;6.38;1.65;;;25.80;99.90;;;;;;10040580;29;20195;-82
2023/05/28 08:50:51;;;;;;;2.35;1.50;;;26.20;99.90;;;;;;10038498;29;20279;-77
2023/05/28 08:56:21;;;;;;;8.88;2.15;;;26.50;99.90;;;;;;9997058;29;20212;-86
2023/05/28 09:01:44;;;;;;;3.38;1.67;;;26.50;99.90;;;;;;10020450;29;20256;-77
2023/05/28 09:07:12;;;;;;;4.07;1.90;;;26.60;99.90;;;;;;10035713;29;20216;-85
2023/05/28 09:13:00;;;;;;;8.70;2.15;;;26.70;99.90;;;;;;10009784;29;20471;-85
2023/05/28 09:18:22;;;;;;;3.60;1.80;;;27.10;99.90;;;;;;10009516;29;20200;-85
2023/05/28 09:23:45;;;;;;;9.43;2.45;;;27.10;99.90;;;;;;10009762;29;20208;-82
2023/05/28 09:29:13;;;;;;;2.67;1.80;;;27.10;99.90;;;;;;10012873;29;20242;-84
2023/05/28 09:34:34;;;;;;;4.72;1.60;;;27.00;99.90;;;;;;10047143;29;20242;-85
2023/05/28 09:40:10;;;;;;;4.20;1.83;;;27.30;99.90;;;;;;10009608;29;20550;-81
2023/05/28 09:45:31;;;;;;;4.60;1.27;;;27.30;99.90;;;;;;9995190;29;20212;-84
2023/05/28 09:50:55;;;;;;;4.72;1.52;;;27.60;99.90;;;;;;10010853;29;20235;-84
2023/05/28 09:56:16;;;;;;;4.40;1.70;;;27.60;99.90;;;;;;10009119;29;20275;-80
2023/05/28 10:02:00;;;;;;;60.88;5.70;;;27.50;99.90;;;;;;10017674;29;20255;-82
2023/05/28 10:07:24;;;;;;;5.05;1.65;;;28.00;99.90;;;;;;10030423;29;20494;-83
2023/05/28 10:12:47;;;;;;;4.90;1.65;;;28.10;99.90;;;;;;10010081;29;20264;-84
2023/05/28 10:18:08;;;;;;;4.15;1.75;;;28.50;99.90;;;;;;10007097;29;20252;-76
2023/05/28 10:23:30;;;;;;;3.90;1.65;;;28.60;99.90;;;;;;10011076;29;20207;-84
2023/05/28 10:28:56;;;;;;;2.10;1.40;;;28.30;99.90;;;;;;10013442;29;20254;-82
2023/05/28 10:34:18;;;;;;;3.88;1.65;;;28.40;99.90;;;;;;10044695;29;20231;-83
2023/05/28 10:39:41;;;;;;;4.57;1.85;;;28.70;99.90;;;;;;10037778;29;20226;-82
2023/05/28 10:45:03;;;;;;;4.57;1.90;;;;;;;;;;10044264;29;20207;-84
2023/05/28 10:50:24;;;;;;;3.90;1.75;;;28.60;99.90;;;;;;10045264;29;20387;-85
2023/05/28 10:55:53;;;;;;;2.58;1.90;;;28.70;99.90;;;;;;10036941;29;20234;-85
2023/05/28 11:01:14;;;;;;;4.50;1.60;;;28.70;99.90;;;;;;10021361;29;20211;-80
2023/05/28 11:06:40;;;;;;;3.45;1.65;;;28.90;99.90;;;;;;10044746;29;20206;-79
2023/05/28 11:12:02;;;;;;;3.22;1.60;;;28.90;99.90;;;;;;10043087;29;20303;-76
2023/05/28 11:17:23;;;;;;;2.72;1.52;;;28.80;99.90;;;;;;10015821;29;20260;-82
2023/05/28 11:22:44;;;;;;;3.30;1.50;;;28.80;99.90;;;;;;10005509;29;20231;-80
2023/05/28 11:28:06;;;;;;;2.97;1.60;;;28.80;99.90;;;;;;10004594;29;20280;-79
2023/05/28 11:33:27;;;;;;;4.18;2.00;;;28.50;99.90;;;;;;10019114;29;20271;-77
2023/05/28 11:39:02;;;;;;;2.72;1.40;;;28.30;99.90;;;;;;10032807;29;20207;-80
2023/05/28 11:44:23;;;;;;;4.00;1.50;;;28.60;99.90;;;;;;10005531;29;20196;-83
2023/05/28 11:49:48;;;;;;;3.47;1.52;;;28.40;99.90;;;;;;10034405;29;20234;-80
2023/05/28 11:55:10;;;;;;;2.38;1.40;;;28.30;99.90;;;;;;10018757;29;20216;-85
2023/05/28 12:00:33;;;;;;;2.60;1.40;;;28.60;99.90;;;;;;10006902;29;20415;-84
2023/05/28 12:05:55;;;;;;;3.80;1.40;;;28.40;99.90;;;;;;10042457;29;20220;-84
2023/05/28 12:11:16;;;;;;;4.07;1.73;;;28.30;99.90;;;;;;10042335;29;20438;-78
2023/05/28 12:16:47;;;;;;;5.80;2.05;;;28.40;99.90;;;;;;10018123;29;20230;-85
2023/05/28 12:22:14;;;;;;;3.42;1.45;;;28.00;99.90;;;;;;10004417;29;20252;-80
2023/05/28 12:27:37;;;;;;;2.95;1.40;;;27.80;99.90;;;;;;10016455;29;20211;-84
2023/05/28 12:32:58;;;;;;;5.22;2.38;;;27.70;99.90;;;;;;10033748;29;20513;-84
2023/05/28 12:38:20;;;;;;;2.88;1.50;;;27.60;99.90;;;;;;10042984;29;20222;-82
2023/05/28 12:43:42;;;;;;;5.28;1.42;;;27.70;99.90;;;;;;10004527;29;20211;-82
2023/05/28 12:49:04;;;;;;;3.65;1.80;;;27.50;99.90;;;;;;10003870;29;20329;-85
2023/05/28 12:54:26;;;;;;;4.22;2.22;;;27.90;99.90;;;;;;10002750;29;20244;-78
2023/05/28 12:59:47;;;;;;;2.65;1.60;;;28.00;99.90;;;;;;10005856;29;20498;-85
2023/05/28 13:05:56;;;;;;;4.32;1.52;;;28.20;99.90;;;;;;10039820;29;20203;-80
2023/05/28 13:12:03;;;;;;;3.95;1.75;;;27.90;99.90;;;;;;10095459;29;20608;-77
2023/05/28 13:17:25;;;;;;;2.38;1.52;;;27.60;99.90;;;;;;10048087;29;20237;-80
2023/05/28 13:22:46;;;;;;;3.00;1.88;;;27.60;99.90;;;;;;10075663;29;20215;-85
2023/05/28 13:28:07;;;;;;;4.93;1.45;;;27.50;99.90;;;;;;10060085;29;20223;-81
2023/05/28 13:33:28;;;;;;;2.63;1.55;;;27.40;99.90;;;;;;10097315;29;20652;-79
2023/05/28 13:38:50;;;;;;;5.40;1.88;;;26.90;99.90;;;;;;10109775;29;20584;-85
2023/05/28 13:44:13;;;;;;;3.28;1.52;;;27.00;99.90;;;;;;10022141;29;20291;-79
2023/05/28 13:56:04;;;;;;;3.22;1.73;;;26.80;99.90;;;;;;10012407;29;20219;-84
2023/05/28 14:01:26;;;;;;;2.42;1.65;;;26.60;99.90;;;;;;10017868;29;20505;-83
2023/05/28 14:06:47;;;;;;;2.90;1.60;;;26.50;99.90;;;;;;10007609;29;20398;-79
2023/05/28 14:12:08;;;;;;;4.28;1.77;;;26.50;99.90;;;;;;10008338;29;20542;-83
2023/05/28 14:23:01;;;;;;;2.65;1.80;;;26.10;99.90;;;;;;10008650;29;20529;-85
2023/05/28 14:28:22;;;;;;;1.70;1.50;;;25.90;99.90;;;;;;10012948;29;20223;-84
2023/05/28 14:33:43;;;;;;;4.10;1.70;;;25.70;99.90;;;;;;10019430;29;20497;-75
2023/05/28 14:39:04;;;;;;;4.63;1.67;;;25.50;99.90;;;;;;10013180;29;20200;-77
2023/05/28 14:44:26;;;;;;;1.92;1.50;;;25.40;99.90;;;;;;10006944;29;20521;-76
2023/05/28 14:49:47;;;;;;;4.18;2.13;;;25.40;99.90;;;;;;10020730;29;20226;-76
2023/05/28 15:02:16;;;;;;;5.63;1.73;;;25.10;99.90;;;;;;10020710;29;20195;-77
2023/05/28 15:07:38;;;;;;;2.90;1.90;;;25.00;99.90;;;;;;10022091;29;20278;-76
2023/05/28 15:12:59;;;;;;;6.05;1.52;;;24.90;99.90;;;;;;10007166;29;20231;-78
2023/05/28 15:23:40;;;;;;;5.70;1.88;;;24.70;99.90;;;;;;10007856;29;20211;-79
2023/05/28 15:29:02;;;;;;;2.53;1.67;;;24.70;99.90;;;;;;10032398;29;20223;-80
2023/05/28 15:34:23;;;;;;;3.15;2.15;;;24.50;99.90;;;;;;10023443;29;20263;-78
2023/05/28 15:39:45;;;;;;;2.40;2.00;;;24.60;99.90;;;;;;10005748;29;20203;-83
2023/05/28 15:45:07;;;;;;;4.47;2.15;;;24.60;99.90;;;;;;10008317;29;20216;-85
2023/05/28 15:50:28;;;;;;;3.05;1.85;;;24.40;99.90;;;;;;10003991;29;20453;-79
2023/05/28 15:55:49;;;;;;;5.30;1.70;;;24.40;99.90;;;;;;10008040;29;20373;-80
2023/05/28 16:01:10;;;;;;;3.20;1.92;;;24.30;99.90;;;;;;9997390;29;20505;-82
2023/05/28 16:06:32;;;;;;;5.13;2.30;;;24.20;99.90;;;;;;10009946;29;20283;-82
2023/05/28 16:11:55;;;;;;;4.05;1.80;;;23.80;99.90;;;;;;10004554;29;20231;-84
2023/05/28 16:17:17;;;;;;;5.30;2.00;;;23.60;99.90;;;;;;10039661;29;20202;-84
2023/05/28 16:22:40;;;;;;;4.68;1.90;;;23.50;99.90;;;;;;10038706;29;20480;-79
2023/05/28 16:28:02;;;;;;;5.07;2.35;;;23.50;99.90;;;;;;9990096;29;20490;-79
2023/05/28 16:33:23;;;;;;;3.08;2.20;;;23.00;99.90;;;;;;10010620;29;20243;-80
2023/05/28 16:38:44;;;;;;;5.30;1.98;;;22.50;99.90;;;;;;10027839;29;20203;-77
2023/05/28 16:44:07;;;;;;;5.40;2.30;;;22.20;99.90;;;;;;10024987;29;20207;-84
2023/05/28 16:49:29;;;;;;;4.88;1.98;;;21.90;99.90;;;;;;10040369;29;20302;-77
2023/05/28 16:54:50;;;;;;;5.68;2.40;;;21.70;99.90;;;;;;10020279;29;20208;-81
2023/05/28 17:00:20;;;;;;;4.97;2.08;;;21.60;99.90;;;;;;10002687;29;20231;-81
2023/05/28 17:05:41;;;;;;;5.78;2.38;;;21.50;99.90;;;;;;10016403;29;20212;-84
2023/05/28 17:11:02;;;;;;;6.40;2.40;;;21.30;99.90;;;;;;10003433;29;20234;-76
2023/05/28 17:16:23;;;;;;;6.28;2.72;;;21.20;99.90;;;;;;10038037;29;20199;-77
2023/05/28 17:21:46;;;;;;;2.95;2.10;;;21.00;99.90;;;;;;10048509;29;20222;-78
2023/05/28 17:27:07;;;;;;;4.68;2.25;;;20.70;99.90;;;;;;10043650;29;20377;-82
2023/05/28 17:32:28;;;;;;;2.70;1.70;;;20.60;99.90;;;;;;10046287;29;20257;-80
2023/05/28 17:37:49;;;;;;;6.97;2.83;;;20.40;99.90;;;;;;10031503;29;20263;-84
2023/05/28 17:43:11;;;;;;;4.50;2.38;;;20.40;99.90;;;;;;10017782;29;20301;-76
2023/05/28 17:48:32;;;;;;;7.03;3.05;;;20.50;99.90;;;;;;10003632;29;20336;-80
2023/05/28 17:53:54;;;;;;;3.65;2.15;;;20.50;99.90;;;;;;10024052;29;20219;-81
2023/05/28 17:59:16;;;;;;;4.38;2.40;;;20.40;99.90;;;;;;10045850;29;20207;-79
2023/05/28 18:04:37;;;;;;;4.82;2.88;;;20.30;99.90;;;;;;10044923;29;20566;-78
2023/05/28 18:09:58;;;;;;;6.75;3.45;;;20.20;99.90;;;;;;10023247;29;20227;-84
2023/05/28 18:15:23;;;;;;;8.50;4.38;;;20.10;99.90;;;;;;10024174;29;20513;-80
2023/05/28 18:20:45;;;;;;;9.38;4.30;;;20.00;99.90;;;;;;10046572;29;20215;-80
2023/05/28 18:26:06;;;;;;;9.57;4.72;;;19.90;99.90;;;;;;10040698;29;20326;-83
2023/05/28 18:31:27;;;;;;;10.20;4.82;;;19.90;99.90;;;;;;10003275;29;20231;-81
2023/05/28 18:36:49;;;;;;;9.70;3.90;;;19.90;99.90;;;;;;10024975;29;20235;-79
2023/05/28 18:42:10;;;;;;;5.65;3.25;;;19.70;99.90;;;;;;10040023;29;20203;-80
2023/05/28 18:47:31;;;;;;;9.23;5.20;;;19.60;99.90;;;;;;10025270;29;20266;-82
2023/05/28 18:52:53;;;;;;;11.68;5.72;;;19.50;99.90;;;;;;10006863;29;20464;-82
2023/05/28 18:58:15;;;;;;;7.13;4.10;;;19.40;99.90;;;;;;10007975;29;20198;-83
2023/05/28 19:03:37;;;;;;;5.68;3.05;;;19.30;99.90;;;;;;10054041;29;20215;-82
2023/05/28 19:08:59;;;;;;;7.13;4.63;;;19.10;99.90;;;;;;10077124;29;20194;-80
2023/05/28 19:14:20;;;;;;;6.45;4.22;;;19.00;99.90;;;;;;10009715;29;20379;-81
2023/05/28 19:19:43;;;;;;;9.43;5.78;;;18.90;99.90;;;;;;10038754;29;20203;-81
2023/05/28 19:25:06;;;;;;;9.20;5.68;;;18.80;99.90;;;;;;10077260;29;20213;-81
2023/05/28 19:30:27;;;;;;;10.80;7.15;;;18.70;99.90;;;;;;10037742;29;20238;-84
2023/05/28 19:35:48;;;;;;;14.88;8.13;;;18.60;99.90;;;;;;10063313;29;20482;-79
2023/05/28 19:41:09;;;;;;;12.23;7.50;;;18.50;99.90;;;;;;10027469;29;20282;-76
2023/05/28 19:46:30;;;;;;;9.07;6.03;;;18.40;99.90;;;;;;10034211;29;20204;-77
2023/05/28 19:51:52;;;;;;;8.40;4.72;;;18.40;99.90;;;;;;10006430;29;20236;-83
2023/05/28 19:57:13;;;;;;;9.00;4.78;;;18.30;99.90;;;;;;10004462;29;20226;-82
2023/05/28 20:02:34;;;;;;;10.70;4.53;;;18.30;99.90;;;;;;10007232;29;20374;-84
2023/05/28 20:07:56;;;;;;;12.32;5.80;;;18.00;99.90;;;;;;10026541;29;20203;-82
2023/05/28 20:13:18;;;;;;;16.55;7.38;;;17.80;99.90;;;;;;10039944;29;20246;-83
2023/05/28 20:18:39;;;;;;;14.05;6.43;;;17.70;99.90;;;;;;10042385;29;20218;-83
2023/05/28 20:24:01;;;;;;;11.63;5.72;;;17.60;99.90;;;;;;10014420;29;20208;-82
2023/05/28 20:29:26;;;;;;;6.72;4.22;;;17.40;99.90;;;;;;10003283;29;20204;-80
2023/05/28 20:34:47;;;;;;;6.90;4.60;;;17.30;99.90;;;;;;10032471;29;20271;-83
2023/05/28 20:40:10;;;;;;;12.15;6.13;;;17.30;99.90;;;;;;10027847;29;20203;-80
2023/05/28 20:45:36;;;;;;;9.15;5.18;;;;;;;;;;10006544;29;20218;-79
2023/05/28 20:50:57;;;;;;;6.80;4.13;;;17.20;1.00;;;;;;10010053;29;20215;-84
2023/05/28 20:56:20;;;;;;;11.32;5.22;;;17.10;1.00;;;;;;10014730;29;20213;-82
2023/05/28 21:01:43;;;;;;;9.20;5.55;;;16.80;99.90;;;;;;10018722;29;20209;-84
2023/05/28 21:07:05;;;;;;;15.10;6.20;;;16.90;99.90;;;;;;10047774;29;20199;-83
2023/05/28 21:12:26;;;;;;;8.85;5.28;;;16.70;99.90;;;;;;10044242;29;20226;-80
2023/05/28 21:17:47;;;;;;;10.20;5.53;;;16.70;99.90;;;;;;10048705;29;20199;-84
2023/05/28 21:23:09;;;;;;;13.00;6.47;;;16.60;99.90;;;;;;10027826;29;20215;-78
2023/05/28 21:28:30;;;;;;;12.10;6.50;;;16.60;99.90;;;;;;10010269;29;20195;-77
2023/05/28 21:33:52;;;;;;;17.35;8.10;;;16.40;86.00;;;;;;10023384;29;20261;-78
2023/05/28 21:39:13;;;;;;;18.60;8.82;;;16.30;1.00;;;;;;10009562;29;20271;-84
2023/05/28 21:44:35;;;;;;;20.33;8.35;;;16.30;1.00;;;;;;10012478;29;20211;-81
2023/05/28 21:49:56;;;;;;;20.13;7.80;;;16.10;34.30;;;;;;10008520;29;20235;-83
2023/05/28 21:55:18;;;;;;;16.35;8.50;;;16.00;97.60;;;;;;10012402;29;20428;-83
2023/05/28 22:00:39;;;;;;;12.20;6.88;;;15.80;1.00;;;;;;10008150;29;20202;-85
2023/05/28 22:06:00;;;;;;;11.70;7.03;;;15.80;1.00;;;;;;10049724;29;20205;-83
2023/05/28 22:11:22;;;;;;;14.40;6.80;;;15.70;1.00;;;;;;10042474;29;20240;-82
2023/05/28 22:16:43;;;;;;;12.95;7.55;;;15.60;1.00;;;;;;10034604;29;20197;-82
2023/05/28 22:22:05;;;;;;;11.75;6.55;;;15.40;99.90;;;;;;10033007;29;20218;-80
2023/05/28 22:27:26;;;;;;;11.98;6.78;;;15.40;1.00;;;;;;10007162;29;20225;-82
2023/05/28 22:32:47;;;;;;;12.90;6.82;;;15.30;99.90;;;;;;10010236;29;20250;-84
2023/05/28 22:38:08;;;;;;;9.10;5.75;;;15.10;99.90;;;;;;10048446;29;20196;-77
2023/05/28 22:43:30;;;;;;;10.95;5.93;;;;;;;;;;10033176;29;20249;-75
2023/05/28 22:48:56;;;;;;;8.73;5.45;;;;;;;;;;10007106;29;20205;-81
2023/05/28 22:54:17;;;;;;;8.50;5.20;;;14.50;1.00;;;;;;10005812;29;20268;-84
2023/05/28 22:59:39;;;;;;;9.15;4.95;;;;;;;;;;10006343;29;20197;-84
2023/05/28 23:05:00;;;;;;;7.07;5.18;;;14.40;1.00;;;;;;10029596;29;20209;-77
2023/05/28 23:10:22;;;;;;;11.02;5.05;;;14.50;99.90;;;;;;10038393;29;20298;-82
2023/05/28 23:15:43;;;;;;;10.07;4.95;;;14.40;16.10;;;;;;10020243;29;20209;-82
2023/05/28 23:21:08;;;;;;;9.30;4.90;;;14.40;55.60;;;;;;10009440;29;20286;-82
2023/05/28 23:26:29;;;;;;;8.77;5.00;;;14.30;20.70;;;;;;10005505;29;20207;-83
2023/05/28 23:31:51;;;;;;;12.38;5.63;;;14.20;83.40;;;;;;10018273;29;20222;-84
2023/05/28 23:37:12;;;;;;;10.20;5.07;;;14.30;99.90;;;;;;10043876;29;20198;-83
2023/05/28 23:42:33;;;;;;;12.10;5.53;;;14.20;99.90;;;;;;10022242;29;20218;-84
2023/05/28 23:47:56;;;;;;;8.82;5.28;;;14.10;99.90;;;;;;10005735;29;20214;-80
2023/05/28 23:53:18;;;;;;;14.73;6.90;;;14.00;99.90;;;;;;10008491;29;20254;-77
2023/05/28 23:58:40;;;;;;;14.07;6.57;;;14.00;99.90;;;;;;10005568;29;20214;-83
